Boa Tyr — LAMU — position and weather

sailwx.info

Track history (hours):
 
Tides and Currents Weather Stations Pressure Air Temp Water Temp Dewpoint Dewpoint Depression Visibility Wind Speed Wind Dir Waves Ship Positions

Boa Tyr

Last reported at 2016-Aug-24 15:27 UTC. Time now 2016-Aug-25 21:58 UTC.
Position N 66°31' E 012°58'.

Length 31 m; draft 5 m.

Type: Tug. MMSI: 258395000.

Date/timePositionNaut miles runAvg speedWind from/ knotsBaromVisibWave heightAir tempDewpointWater temp
2016-Aug-24 15:27N 66°31' E 012°58'8 7.6
2016-Aug-24 14:27N 66°23' E 012°58'76 2.0
2016-Aug-23 01:05N 65°12' E 011°53'5 9.3
2016-Aug-23 00:32N 65°08' E 011°49'9 9.1
2016-Aug-22 23:33N 65°00' E 011°37'9 9.1
2016-Aug-22 22:33N 64°54' E 011°21'9 9.2
2016-Aug-22 21:33N 64°48' E 011°06'65 8.7
2016-Aug-22 14:08N 63°53' E 009°45'6 9.7
2016-Aug-22 13:28N 63°49' E 009°35'8 9.3
2016-Aug-22 12:33N 63°41' E 009°29'10 9.1
2016-Aug-22 11:27N 63°33' E 009°16'6 3.3
2016-Aug-22 09:32N 63°28' E 009°26'0 0.1
2016-Aug-22 08:33N 63°28' E 009°26'0 0.4
2016-Aug-22 07:33N 63°28' E 009°25'0 0.0
2016-Aug-22 06:33N 63°28' E 009°25'1 0.7
2016-Aug-22 05:33N 63°28' E 009°24'1 0.5
2016-Aug-22 04:17N 63°27' E 009°22'0 0.3
2016-Aug-22 03:10N 63°27' E 009°22'0 0.0
2016-Aug-22 01:32N 63°27' E 009°22'7 2.4
2016-Aug-21 22:31N 63°28' E 009°06'5 5.4
2016-Aug-21 21:33N 63°32' E 009°13'7 7.0
2016-Aug-21 20:33N 63°36' E 009°26'8 7.6
2016-Aug-21 19:33N 63°43' E 009°31'7 7.3
2016-Aug-21 18:32N 63°50' E 009°37'75 1.7
2016-Aug-19 23:25N 64°52' E 011°14'0 0.0
2016-Aug-19 22:33N 64°52' E 011°14'0 0.0
2016-Aug-19 21:33N 64°52' E 011°14'0 0.0
2016-Aug-19 20:33N 64°52' E 011°14'0 0.0
2016-Aug-19 19:33N 64°52' E 011°14'0 0.0
2016-Aug-19 18:33N 64°52' E 011°14'0 0.0
2016-Aug-19 17:33N 64°52' E 011°14'1 1.5
2016-Aug-19 16:33N 64°52' E 011°17'1010.2
2016-Aug-19 15:33N 64°59' E 011°35'10 9.8
2016-Aug-19 14:33N 65°07' E 011°49'10 9.7
2016-Aug-19 13:33N 65°16' E 011°57'  
2016-Aug-14 16:09N 66°21' E 012°57'  
Track history (hours):
 
Tides and Currents Weather Stations Pressure Air Temp Water Temp Dewpoint Dewpoint Depression Visibility Wind Speed Wind Dir Waves Ship Positions

Boa Tyr

Last reported at 2016-Aug-24 15:27 UTC. Time now 2016-Aug-25 21:58 UTC.
Position N 66°31' E 012°58'.

Length 31 m; draft 5 m.

Type: Tug. MMSI: 258395000.

Date/timePositionNaut miles runAvg speedWind from/ knotsBaromVisibWave heightAir tempDewpointWater temp
2016-Aug-24 15:27N 66°31' E 012°58'8 7.6
2016-Aug-24 14:27N 66°23' E 012°58'76 2.0
2016-Aug-23 01:05N 65°12' E 011°53'5 9.3
2016-Aug-23 00:32N 65°08' E 011°49'9 9.1
2016-Aug-22 23:33N 65°00' E 011°37'9 9.1
2016-Aug-22 22:33N 64°54' E 011°21'9 9.2
2016-Aug-22 21:33N 64°48' E 011°06'65 8.7
2016-Aug-22 14:08N 63°53' E 009°45'6 9.7
2016-Aug-22 13:28N 63°49' E 009°35'8 9.3
2016-Aug-22 12:33N 63°41' E 009°29'10 9.1
2016-Aug-22 11:27N 63°33' E 009°16'6 3.3
2016-Aug-22 09:32N 63°28' E 009°26'0 0.1
2016-Aug-22 08:33N 63°28' E 009°26'0 0.4
2016-Aug-22 07:33N 63°28' E 009°25'0 0.0
2016-Aug-22 06:33N 63°28' E 009°25'1 0.7
2016-Aug-22 05:33N 63°28' E 009°24'1 0.5
2016-Aug-22 04:17N 63°27' E 009°22'0 0.3
2016-Aug-22 03:10N 63°27' E 009°22'0 0.0
2016-Aug-22 01:32N 63°27' E 009°22'7 2.4
2016-Aug-21 22:31N 63°28' E 009°06'5 5.4
2016-Aug-21 21:33N 63°32' E 009°13'7 7.0
2016-Aug-21 20:33N 63°36' E 009°26'8 7.6
2016-Aug-21 19:33N 63°43' E 009°31'7 7.3
2016-Aug-21 18:32N 63°50' E 009°37'75 1.7
2016-Aug-19 23:25N 64°52' E 011°14'0 0.0
2016-Aug-19 22:33N 64°52' E 011°14'0 0.0
2016-Aug-19 21:33N 64°52' E 011°14'0 0.0
2016-Aug-19 20:33N 64°52' E 011°14'0 0.0
2016-Aug-19 19:33N 64°52' E 011°14'0 0.0
2016-Aug-19 18:33N 64°52' E 011°14'0 0.0
2016-Aug-19 17:33N 64°52' E 011°14'1 1.5
2016-Aug-19 16:33N 64°52' E 011°17'1010.2
2016-Aug-19 15:33N 64°59' E 011°35'10 9.8
2016-Aug-19 14:33N 65°07' E 011°49'10 9.7
2016-Aug-19 13:33N 65°16' E 011°57'  
2016-Aug-14 16:09N 66°21' E 012°57'  

Dump ship's entire track history